sensor_id;sensor_type;location;lat;lon;timestamp;temperature;humidity
54558;DHT22;40452;50.080;20.040;2022-12-15T04:21:07;18.60;32.30
54558;DHT22;40452;50.080;20.040;2022-12-15T04:23:33;19.30;32.90
54558;DHT22;40452;50.080;20.040;2022-12-15T04:25:58;19.30;32.70
54558;DHT22;40452;50.080;20.040;2022-12-15T04:28:42;19.30;32.80
54558;DHT22;40452;50.080;20.040;2022-12-15T04:31:29;19.30;32.70
54558;DHT22;40452;50.080;20.040;2022-12-15T04:34:18;19.30;32.80
54558;DHT22;40452;50.080;20.040;2022-12-15T04:37:05;19.30;32.90
54558;DHT22;40452;50.080;20.040;2022-12-15T04:39:51;19.30;32.90
54558;DHT22;40452;50.080;20.040;2022-12-15T04:42:40;19.30;33.00
54558;DHT22;40452;50.080;20.040;2022-12-15T04:45:25;19.40;32.30
54558;DHT22;40452;50.080;20.040;2022-12-15T04:48:09;19.30;32.20
54558;DHT22;40452;50.080;20.040;2022-12-15T04:50:53;19.40;32.20
54558;DHT22;40452;50.080;20.040;2022-12-15T04:53:38;19.40;32.10
54558;DHT22;40452;50.080;20.040;2022-12-15T04:56:22;19.40;32.20
54558;DHT22;40452;50.080;20.040;2022-12-15T04:59:05;19.40;32.10
54558;DHT22;40452;50.080;20.040;2022-12-15T05:01:49;19.40;32.10
54558;DHT22;40452;50.080;20.040;2022-12-15T05:04:34;19.40;32.10
54558;DHT22;40452;50.080;20.040;2022-12-15T05:07:18;19.40;32.10
54558;DHT22;40452;50.080;20.040;2022-12-15T05:10:03;19.40;32.00
54558;DHT22;40452;50.080;20.040;2022-12-15T05:12:47;19.40;32.10
54558;DHT22;40452;50.080;20.040;2022-12-15T05:15:32;19.40;32.10
54558;DHT22;40452;50.080;20.040;2022-12-15T05:18:16;19.40;32.00
54558;DHT22;40452;50.080;20.040;2022-12-15T05:21:00;19.40;32.10
54558;DHT22;40452;50.080;20.040;2022-12-15T05:23:44;19.40;32.10
54558;DHT22;40452;50.080;20.040;2022-12-15T05:26:28;19.40;32.10
54558;DHT22;40452;50.080;20.040;2022-12-15T05:29:12;19.50;32.80
54558;DHT22;40452;50.080;20.040;2022-12-15T05:31:56;19.50;32.40
54558;DHT22;40452;50.080;20.040;2022-12-15T05:34:25;19.50;32.30
54558;DHT22;40452;50.080;20.040;2022-12-15T05:36:52;19.50;32.30
54558;DHT22;40452;50.080;20.040;2022-12-15T05:39:18;19.50;32.30
54558;DHT22;40452;50.080;20.040;2022-12-15T05:41:44;19.50;32.30
54558;DHT22;40452;50.080;20.040;2022-12-15T05:44:10;19.50;32.20
54558;DHT22;40452;50.080;20.040;2022-12-15T05:46:35;19.50;32.30
54558;DHT22;40452;50.080;20.040;2022-12-15T05:49:05;19.50;32.90
54558;DHT22;40452;50.080;20.040;2022-12-15T05:51:31;19.50;32.10
54558;DHT22;40452;50.080;20.040;2022-12-15T05:53:57;19.60;32.20
54558;DHT22;40452;50.080;20.040;2022-12-15T05:56:23;19.70;32.40
54558;DHT22;40452;50.080;20.040;2022-12-15T05:58:49;19.70;32.80
54558;DHT22;40452;50.080;20.040;2022-12-15T06:01:16;19.60;32.80
54558;DHT22;40452;50.080;20.040;2022-12-15T06:03:42;19.60;33.20
54558;DHT22;40452;50.080;20.040;2022-12-15T06:06:09;19.60;33.30
54558;DHT22;40452;50.080;20.040;2022-12-15T06:08:37;19.60;33.50
54558;DHT22;40452;50.080;20.040;2022-12-15T06:11:04;19.60;33.60
54558;DHT22;40452;50.080;20.040;2022-12-15T06:13:30;19.60;33.60
54558;DHT22;40452;50.080;20.040;2022-12-15T06:16:04;19.60;33.60
54558;DHT22;40452;50.080;20.040;2022-12-15T06:18:32;19.60;33.70
54558;DHT22;40452;50.080;20.040;2022-12-15T06:20:58;19.60;33.50
54558;DHT22;40452;50.080;20.040;2022-12-15T06:23:26;19.60;33.60
54558;DHT22;40452;50.080;20.040;2022-12-15T06:25:52;19.60;33.60
54558;DHT22;40452;50.080;20.040;2022-12-15T06:28:18;19.60;33.60
54558;DHT22;40452;50.080;20.040;2022-12-15T06:30:49;19.60;33.40
54558;DHT22;40452;50.080;20.040;2022-12-15T06:33:14;19.60;33.70
54558;DHT22;40452;50.080;20.040;2022-12-15T06:35:40;19.60;33.50
54558;DHT22;40452;50.080;20.040;2022-12-15T06:38:05;19.50;33.40
54558;DHT22;40452;50.080;20.040;2022-12-15T06:40:31;19.50;33.30
54558;DHT22;40452;50.080;20.040;2022-12-15T06:42:56;19.60;33.30
54558;DHT22;40452;50.080;20.040;2022-12-15T06:45:22;19.50;33.10
54558;DHT22;40452;50.080;20.040;2022-12-15T06:47:47;19.50;33.30
54558;DHT22;40452;50.080;20.040;2022-12-15T06:50:13;19.50;32.80
54558;DHT22;40452;50.080;20.040;2022-12-15T06:52:38;19.50;33.00
54558;DHT22;40452;50.080;20.040;2022-12-15T06:55:04;19.50;33.00
54558;DHT22;40452;50.080;20.040;2022-12-15T06:57:30;19.50;32.80
54558;DHT22;40452;50.080;20.040;2022-12-15T06:59:56;19.50;32.80
54558;DHT22;40452;50.080;20.040;2022-12-15T07:02:21;19.50;32.90
54558;DHT22;40452;50.080;20.040;2022-12-15T07:04:46;19.50;32.90
54558;DHT22;40452;50.080;20.040;2022-12-15T07:07:12;19.50;33.00
54558;DHT22;40452;50.080;20.040;2022-12-15T07:09:37;19.50;33.10
54558;DHT22;40452;50.080;20.040;2022-12-15T07:12:03;19.50;33.10
54558;DHT22;40452;50.080;20.040;2022-12-15T07:14:29;19.50;33.10
54558;DHT22;40452;50.080;20.040;2022-12-15T07:16:54;19.50;33.10
54558;DHT22;40452;50.080;20.040;2022-12-15T07:19:20;19.50;33.10
54558;DHT22;40452;50.080;20.040;2022-12-15T07:21:45;19.60;33.20
54558;DHT22;40452;50.080;20.040;2022-12-15T07:24:11;19.50;33.20
54558;DHT22;40452;50.080;20.040;2022-12-15T07:26:37;19.60;33.30
54558;DHT22;40452;50.080;20.040;2022-12-15T07:29:03;19.50;33.30
54558;DHT22;40452;50.080;20.040;2022-12-15T07:31:30;19.60;33.30
54558;DHT22;40452;50.080;20.040;2022-12-15T07:33:57;19.60;33.30
54558;DHT22;40452;50.080;20.040;2022-12-15T07:36:22;19.60;33.40
54558;DHT22;40452;50.080;20.040;2022-12-15T07:38:48;19.60;33.40
54558;DHT22;40452;50.080;20.040;2022-12-15T07:41:13;19.60;33.30
54558;DHT22;40452;50.080;20.040;2022-12-15T07:43:39;19.60;33.30
54558;DHT22;40452;50.080;20.040;2022-12-15T07:46:05;19.60;33.30
54558;DHT22;40452;50.080;20.040;2022-12-15T07:48:31;19.60;33.30
54558;DHT22;40452;50.080;20.040;2022-12-15T07:50:57;19.60;33.30
54558;DHT22;40452;50.080;20.040;2022-12-15T07:53:24;19.60;33.30
54558;DHT22;40452;50.080;20.040;2022-12-15T07:55:57;19.60;33.30
54558;DHT22;40452;50.080;20.040;2022-12-15T07:58:25;19.60;33.30
54558;DHT22;40452;50.080;20.040;2022-12-15T08:00:51;19.60;33.40
54558;DHT22;40452;50.080;20.040;2022-12-15T08:03:16;19.60;33.40
54558;DHT22;40452;50.080;20.040;2022-12-15T08:05:43;19.60;33.30
54558;DHT22;40452;50.080;20.040;2022-12-15T08:08:09;19.60;33.30
54558;DHT22;40452;50.080;20.040;2022-12-15T08:10:38;19.60;33.50
54558;DHT22;40452;50.080;20.040;2022-12-15T08:13:03;19.60;33.30
54558;DHT22;40452;50.080;20.040;2022-12-15T08:15:29;19.60;33.40
54558;DHT22;40452;50.080;20.040;2022-12-15T08:17:54;19.60;33.30
54558;DHT22;40452;50.080;20.040;2022-12-15T08:20:20;19.70;33.30
54558;DHT22;40452;50.080;20.040;2022-12-15T08:22:45;19.70;33.40
54558;DHT22;40452;50.080;20.040;2022-12-15T08:25:11;19.70;33.50
54558;DHT22;40452;50.080;20.040;2022-12-15T08:27:36;19.70;33.40
54558;DHT22;40452;50.080;20.040;2022-12-15T08:30:02;19.70;33.40
54558;DHT22;40452;50.080;20.040;2022-12-15T08:32:28;19.70;33.30
54558;DHT22;40452;50.080;20.040;2022-12-15T08:34:53;19.70;33.30
54558;DHT22;40452;50.080;20.040;2022-12-15T08:37:19;19.70;33.20
54558;DHT22;40452;50.080;20.040;2022-12-15T17:36:31;19.40;32.10
54558;DHT22;40452;50.080;20.040;2022-12-15T17:38:57;19.80;31.90
54558;DHT22;40452;50.080;20.040;2022-12-15T17:41:25;19.80;31.70
54558;DHT22;40452;50.080;20.040;2022-12-15T17:43:51;19.80;31.70
54558;DHT22;40452;50.080;20.040;2022-12-15T17:46:17;19.90;33.10
54558;DHT22;40452;50.080;20.040;2022-12-15T17:48:43;19.90;33.50
54558;DHT22;40452;50.080;20.040;2022-12-15T17:51:15;19.90;33.50
54558;DHT22;40452;50.080;20.040;2022-12-15T17:53:45;20.00;34.60
54558;DHT22;40452;50.080;20.040;2022-12-15T17:56:15;20.10;34.30
54558;DHT22;40452;50.080;20.040;2022-12-15T17:58:42;20.10;35.30
54558;DHT22;40452;50.080;20.040;2022-12-15T18:01:11;20.10;35.00
54558;DHT22;40452;50.080;20.040;2022-12-15T18:03:37;20.10;35.30
54558;DHT22;40452;50.080;20.040;2022-12-15T18:06:03;20.00;34.60
54558;DHT22;40452;50.080;20.040;2022-12-15T18:08:32;20.00;35.00
54558;DHT22;40452;50.080;20.040;2022-12-15T18:10:58;20.00;34.80
54558;DHT22;40452;50.080;20.040;2022-12-15T18:13:29;20.00;34.60
54558;DHT22;40452;50.080;20.040;2022-12-15T18:15:56;19.90;34.40
54558;DHT22;40452;50.080;20.040;2022-12-15T18:18:23;20.00;34.30
54558;DHT22;40452;50.080;20.040;2022-12-15T18:20:50;20.00;35.40
54558;DHT22;40452;50.080;20.040;2022-12-15T18:23:21;20.00;34.80
54558;DHT22;40452;50.080;20.040;2022-12-15T18:25:48;20.00;35.30
54558;DHT22;40452;50.080;20.040;2022-12-15T18:28:29;20.00;35.30
54558;DHT22;40452;50.080;20.040;2022-12-15T18:31:02;20.00;35.50
54558;DHT22;40452;50.080;20.040;2022-12-15T18:33:28;20.00;35.50
54558;DHT22;40452;50.080;20.040;2022-12-15T18:35:54;20.00;35.50
54558;DHT22;40452;50.080;20.040;2022-12-15T18:38:25;20.00;35.40
54558;DHT22;40452;50.080;20.040;2022-12-15T18:40:53;20.00;35.30
54558;DHT22;40452;50.080;20.040;2022-12-15T18:43:21;20.10;35.60
54558;DHT22;40452;50.080;20.040;2022-12-15T18:45:48;20.10;35.40
54558;DHT22;40452;50.080;20.040;2022-12-15T18:48:19;20.10;35.30
54558;DHT22;40452;50.080;20.040;2022-12-15T18:50:45;20.10;35.30
54558;DHT22;40452;50.080;20.040;2022-12-15T18:53:25;20.10;35.30
54558;DHT22;40452;50.080;20.040;2022-12-15T18:55:51;20.10;35.30
54558;DHT22;40452;50.080;20.040;2022-12-15T18:58:23;20.10;35.30
54558;DHT22;40452;50.080;20.040;2022-12-15T19:00:50;20.10;35.30
54558;DHT22;40452;50.080;20.040;2022-12-15T19:03:16;20.10;35.60
54558;DHT22;40452;50.080;20.040;2022-12-15T19:05:42;20.10;35.50
54558;DHT22;40452;50.080;20.040;2022-12-15T19:08:20;20.10;35.50
54558;DHT22;40452;50.080;20.040;2022-12-15T19:10:59;20.10;35.40
54558;DHT22;40452;50.080;20.040;2022-12-15T19:13:29;20.10;35.30
54558;DHT22;40452;50.080;20.040;2022-12-15T19:15:59;20.10;35.30
54558;DHT22;40452;50.080;20.040;2022-12-15T19:18:25;20.10;35.10
54558;DHT22;40452;50.080;20.040;2022-12-15T19:21:19;20.10;35.00
54558;DHT22;40452;50.080;20.040;2022-12-15T19:24:06;20.20;34.90
54558;DHT22;40452;50.080;20.040;2022-12-15T19:26:31;20.20;35.00
54558;DHT22;40452;50.080;20.040;2022-12-15T19:28:57;20.20;35.10
54558;DHT22;40452;50.080;20.040;2022-12-15T19:31:23;20.20;35.30
54558;DHT22;40452;50.080;20.040;2022-12-15T19:33:48;20.20;35.20
54558;DHT22;40452;50.080;20.040;2022-12-15T19:36:17;20.20;35.10
54558;DHT22;40452;50.080;20.040;2022-12-15T19:38:45;20.20;34.90
54558;DHT22;40452;50.080;20.040;2022-12-15T19:41:15;20.20;34.90
54558;DHT22;40452;50.080;20.040;2022-12-15T19:43:41;20.20;34.90
54558;DHT22;40452;50.080;20.040;2022-12-15T19:46:16;20.20;34.90
54558;DHT22;40452;50.080;20.040;2022-12-15T19:48:42;20.20;35.60
54558;DHT22;40452;50.080;20.040;2022-12-15T19:51:15;20.20;34.80
54558;DHT22;40452;50.080;20.040;2022-12-15T19:53:42;20.20;34.60
54558;DHT22;40452;50.080;20.040;2022-12-15T19:56:12;20.20;34.50
54558;DHT22;40452;50.080;20.040;2022-12-15T19:58:38;20.20;34.30
54558;DHT22;40452;50.080;20.040;2022-12-15T20:01:05;20.20;34.30
54558;DHT22;40452;50.080;20.040;2022-12-15T20:03:31;20.20;34.20
54558;DHT22;40452;50.080;20.040;2022-12-15T20:05:58;20.20;33.90
54558;DHT22;40452;50.080;20.040;2022-12-15T20:08:28;20.20;33.60
54558;DHT22;40452;50.080;20.040;2022-12-15T20:10:57;20.20;33.50
54558;DHT22;40452;50.080;20.040;2022-12-15T20:13:22;20.20;33.30
54558;DHT22;40452;50.080;20.040;2022-12-15T20:15:51;20.20;33.20
54558;DHT22;40452;50.080;20.040;2022-12-15T20:18:16;20.20;33.30
54558;DHT22;40452;50.080;20.040;2022-12-15T20:20:44;20.20;33.20
54558;DHT22;40452;50.080;20.040;2022-12-15T20:23:20;20.20;33.20
54558;DHT22;40452;50.080;20.040;2022-12-15T20:25:47;20.20;33.00
54558;DHT22;40452;50.080;20.040;2022-12-15T20:28:16;20.20;33.00
54558;DHT22;40452;50.080;20.040;2022-12-15T20:30:43;20.20;33.00
54558;DHT22;40452;50.080;20.040;2022-12-15T20:33:09;20.20;33.10
54558;DHT22;40452;50.080;20.040;2022-12-15T20:35:36;20.20;33.10
54558;DHT22;40452;50.080;20.040;2022-12-15T20:38:16;20.10;32.90
54558;DHT22;40452;50.080;20.040;2022-12-15T20:40:43;20.10;32.90
54558;DHT22;40452;50.080;20.040;2022-12-15T20:43:15;20.10;32.80
54558;DHT22;40452;50.080;20.040;2022-12-15T20:45:41;20.10;32.60
54558;DHT22;40452;50.080;20.040;2022-12-15T20:48:10;20.10;32.60
54558;DHT22;40452;50.080;20.040;2022-12-15T20:50:39;20.10;32.50
54558;DHT22;40452;50.080;20.040;2022-12-15T20:53:15;20.10;32.80
54558;DHT22;40452;50.080;20.040;2022-12-15T20:55:41;20.20;33.10
54558;DHT22;40452;50.080;20.040;2022-12-15T20:58:06;20.20;32.80
54558;DHT22;40452;50.080;20.040;2022-12-15T21:00:32;20.10;32.50
54558;DHT22;40452;50.080;20.040;2022-12-15T21:02:58;20.10;32.40
54558;DHT22;40452;50.080;20.040;2022-12-15T21:05:24;20.10;32.50
54558;DHT22;40452;50.080;20.040;2022-12-15T21:07:50;20.10;32.60
54558;DHT22;40452;50.080;20.040;2022-12-15T21:10:18;20.10;32.50
54558;DHT22;40452;50.080;20.040;2022-12-15T21:12:46;20.10;32.50
54558;DHT22;40452;50.080;20.040;2022-12-15T21:15:18;20.10;32.40
54558;DHT22;40452;50.080;20.040;2022-12-15T21:17:44;20.10;32.50
54558;DHT22;40452;50.080;20.040;2022-12-15T21:20:12;20.10;32.40
54558;DHT22;40452;50.080;20.040;2022-12-15T21:22:38;20.10;32.40
54558;DHT22;40452;50.080;20.040;2022-12-15T21:25:14;20.10;32.30
54558;DHT22;40452;50.080;20.040;2022-12-15T21:27:40;20.10;32.20
54558;DHT22;40452;50.080;20.040;2022-12-15T21:30:14;20.10;32.20
54558;DHT22;40452;50.080;20.040;2022-12-15T21:32:40;20.10;32.20
54558;DHT22;40452;50.080;20.040;2022-12-15T21:35:06;20.10;32.20
54558;DHT22;40452;50.080;20.040;2022-12-15T21:37:31;20.10;32.20
54558;DHT22;40452;50.080;20.040;2022-12-15T21:39:57;20.10;32.10
54558;DHT22;40452;50.080;20.040;2022-12-15T21:42:24;20.10;32.10
54558;DHT22;40452;50.080;20.040;2022-12-15T21:44:49;20.10;31.90
54558;DHT22;40452;50.080;20.040;2022-12-15T21:47:26;20.10;32.00
54558;DHT22;40452;50.080;20.040;2022-12-15T21:50:11;20.10;32.70
54558;DHT22;40452;50.080;20.040;2022-12-15T21:52:36;20.10;32.10
54558;DHT22;40452;50.080;20.040;2022-12-15T21:55:05;20.10;32.20
54558;DHT22;40452;50.080;20.040;2022-12-15T21:57:35;20.10;32.20
54558;DHT22;40452;50.080;20.040;2022-12-15T22:00:01;20.10;32.20
54558;DHT22;40452;50.080;20.040;2022-12-15T22:02:27;20.10;32.10
54558;DHT22;40452;50.080;20.040;2022-12-15T22:04:52;20.10;32.00
54558;DHT22;40452;50.080;20.040;2022-12-15T22:07:18;20.10;31.90
54558;DHT22;40452;50.080;20.040;2022-12-15T22:09:43;20.10;32.60
54558;DHT22;40452;50.080;20.040;2022-12-15T22:12:18;20.00;32.10
54558;DHT22;40452;50.080;20.040;2022-12-15T22:14:44;20.10;32.20
54558;DHT22;40452;50.080;20.040;2022-12-15T22:17:16;20.10;32.10
54558;DHT22;40452;50.080;20.040;2022-12-15T22:19:42;20.10;32.10
54558;DHT22;40452;50.080;20.040;2022-12-15T22:22:08;20.10;32.10
54558;DHT22;40452;50.080;20.040;2022-12-15T22:24:33;20.10;32.10
54558;DHT22;40452;50.080;20.040;2022-12-15T22:26:59;20.10;32.20
54558;DHT22;40452;50.080;20.040;2022-12-15T22:29:24;20.10;32.00
54558;DHT22;40452;50.080;20.040;2022-12-15T22:31:51;20.10;32.10
54558;DHT22;40452;50.080;20.040;2022-12-15T22:34:19;20.10;32.00
54558;DHT22;40452;50.080;20.040;2022-12-15T22:36:45;20.10;32.00
54558;DHT22;40452;50.080;20.040;2022-12-15T22:39:11;20.10;31.80
